Wetterdaten: Woche 04.09.23 - 10.09.23 (KW36)
Datum Zeit Temp. Aussen Temp. o. S. Temp +5cm Feuchte Auss Luftdruck Regen Sonnenschein Regendauer Solar Windben Empfang
04.09.2023 00:00 15,4 C 14,0 C 11,0 C 92 % 1028,0 hPa 0,0 l/m 0,00 h 0,00 h 0 W/m 0,0 km/h (0 Bft) 96,16 %
04.09.2023 01:00 14,8 C 13,5 C 10,6 C 94 % 1027,8 hPa 0,0 l/m 0,00 h 0,00 h 0 W/m 0,0 km/h (0 Bft) 97,79 %
04.09.2023 02:00 14,2 C 12,8 C 10,0 C 95 % 1027,7 hPa 0,0 l/m 0,00 h 0,00 h 0 W/m 0,0 km/h (0 Bft) 96,45 %
04.09.2023 03:00 13,8 C 12,6 C 9,7 C 95 % 1027,4 hPa 0,0 l/m 0,00 h 0,00 h 0 W/m 0,0 km/h (0 Bft) 96,13 %
04.09.2023 04:00 13,4 C 12,2 C 9,4 C 96 % 1027,5 hPa 0,0 l/m 0,00 h 0,00 h 0 W/m 1,6 km/h (1 Bft) 97,79 %
04.09.2023 05:00 13,0 C 11,9 C 9,1 C 97 % 1027,5 hPa 0,0 l/m 0,00 h 0,00 h 0 W/m 0,0 km/h (0 Bft) 98,18 %
04.09.2023 06:00 12,6 C 11,7 C 8,9 C 97 % 1027,2 hPa 0,0 l/m 0,00 h 0,00 h 4 W/m 0,0 km/h (0 Bft) 94,88 %
04.09.2023 07:00 12,7 C 12,1 C 9,0 C 97 % 1027,2 hPa 0,0 l/m 0,00 h 0,00 h 18 W/m 0,3 km/h (0 Bft) 99,73 %
04.09.2023 08:00 13,4 C 13,6 C 10,3 C 98 % 1027,1 hPa 0,2 l/m 0,00 h 0,00 h 39 W/m 1,9 km/h (1 Bft) 97,18 %
04.09.2023 09:00 15,7 C 16,9 C 12,8 C 97 % 1027,1 hPa 0,0 l/m 0,23 h 0,00 h 103 W/m 6,0 km/h (2 Bft) 96,73 %
04.09.2023 10:00 18,5 C 19,8 C 14,7 C 85 % 1027,0 hPa 0,0 l/m 0,13 h 0,00 h 130 W/m 6,6 km/h (2 Bft) 98,65 %
04.09.2023 11:00 21,1 C 23,1 C 17,0 C 76 % 1026,8 hPa 0,0 l/m 0,50 h 0,00 h 366 W/m 7,2 km/h (2 Bft) 96,41 %
04.09.2023 12:00 23,3 C 26,9 C 19,3 C 68 % 1026,3 hPa 0,0 l/m 0,60 h 0,00 h 466 W/m 4,6 km/h (1 Bft) 97,18 %
04.09.2023 13:00 24,0 C 23,9 C 19,1 C 64 % 1025,8 hPa 0,0 l/m 0,30 h 0,00 h 323 W/m 6,9 km/h (2 Bft) 99,15 %
04.09.2023 14:00 25,8 C 29,0 C 19,7 C 60 % 1025,2 hPa 0,0 l/m 1,00 h 0,00 h 689 W/m 8,8 km/h (2 Bft) 95,97 %
04.09.2023 15:00 27,0 C 26,6 C 20,5 C 56 % 1024,6 hPa 0,0 l/m 1,00 h 0,00 h 662 W/m 7,7 km/h (2 Bft) 97,71 %
04.09.2023 16:00 27,6 C 27,1 C 21,2 C 54 % 1023,9 hPa 0,0 l/m 1,00 h 0,00 h 570 W/m 7,9 km/h (2 Bft) 98,80 %
04.09.2023 17:00 27,8 C 30,4 C 22,6 C 54 % 1023,3 hPa 0,0 l/m 1,00 h 0,00 h 416 W/m 7,9 km/h (2 Bft) 95,87 %
04.09.2023 18:00 28,2 C 30,6 C 22,0 C 54 % 1023,1 hPa 0,0 l/m 0,80 h 0,00 h 205 W/m 4,5 km/h (1 Bft) 97,82 %
04.09.2023 19:00 25,7 C 23,0 C 18,6 C 62 % 1022,9 hPa 0,0 l/m 0,00 h 0,00 h 28 W/m 1,3 km/h (1 Bft) 98,05 %
04.09.2023 20:00 22,4 C 20,2 C 16,2 C 74 % 1022,8 hPa 0,0 l/m 0,00 h 0,00 h 7 W/m 0,0 km/h (0 Bft) 96,88 %
04.09.2023 21:00 20,8 C 19,3 C 15,1 C 77 % 1022,6 hPa 0,0 l/m 0,00 h 0,00 h 0 W/m 0,6 km/h (0 Bft) 97,23 %
04.09.2023 22:00 20,2 C 19,3 C 15,5 C 76 % 1022,1 hPa 0,0 l/m 0,00 h 0,00 h 0 W/m 2,8 km/h (1 Bft) 99,00 %
04.09.2023 23:00 20,3 C 19,4 C 15,9 C 74 % 1021,5 hPa 0,0 l/m 0,00 h 0,00 h 0 W/m 5,8 km/h (2 Bft) 95,29 %
05.09.2023 00:00 20,4 C 19,4 C 15,8 C 72 % 1021,1 hPa 0,0 l/m 0,00 h 0,00 h 0 W/m 10,3 km/h (2 Bft) 98,10 %
05.09.2023 01:00 20,1 C 18,9 C 15,3 C 72 % 1020,7 hPa 0,0 l/m 0,00 h 0,00 h 0 W/m 7,2 km/h (2 Bft) 98,28 %
05.09.2023 02:00 19,5 C 18,7 C 15,0 C 73 % 1020,5 hPa 0,0 l/m 0,00 h 0,00 h 0 W/m 10,5 km/h (2 Bft) 95,66 %
05.09.2023 03:00 19,2 C 18,1 C 14,4 C 74 % 1020,4 hPa 0,0 l/m 0,00 h 0,00 h 0 W/m 6,6 km/h (2 Bft) 99,44 %
05.09.2023 04:00 19,2 C 18,3 C 14,4 C 73 % 1020,2 hPa 0,0 l/m 0,00 h 0,00 h 0 W/m 10,4 km/h (2 Bft) 96,73 %
05.09.2023 05:00 19,2 C 18,2 C 14,3 C 72 % 1020,2 hPa 0,0 l/m 0,00 h 0,00 h 0 W/m 9,1 km/h (2 Bft) 97,52 %
05.09.2023 06:00 18,6 C 17,3 C 13,8 C 74 % 1020,2 hPa 0,0 l/m 0,00 h 0,00 h 0 W/m 3,8 km/h (1 Bft) 98,24 %
05.09.2023 07:00 18,1 C 17,1 C 13,4 C 76 % 1020,6 hPa 0,0 l/m 0,00 h 0,00 h 12 W/m 3,6 km/h (1 Bft) 94,67 %
05.09.2023 08:00 19,1 C 18,7 C 14,6 C 74 % 1020,7 hPa 0,0 l/m 0,00 h 0,00 h 22 W/m 9,0 km/h (2 Bft) 97,29 %
05.09.2023 09:00 21,2 C 20,7 C 16,5 C 68 % 1020,7 hPa 0,0 l/m 0,20 h 0,00 h 93 W/m 15,9 km/h (3 Bft) 99,43 %
05.09.2023 10:00 23,0 C 23,3 C 18,1 C 64 % 1020,6 hPa 0,0 l/m 0,07 h 0,00 h 104 W/m 19,1 km/h (3 Bft) 94,77 %
05.09.2023 11:00 24,8 C 26,4 C 20,0 C 61 % 1020,3 hPa 0,0 l/m 0,80 h 0,00 h 445 W/m 18,4 km/h (3 Bft) 99,06 %
05.09.2023 12:00 26,8 C 28,6 C 22,2 C 57 % 1020,1 hPa 0,0 l/m 0,77 h 0,00 h 494 W/m 17,1 km/h (3 Bft) 97,76 %
05.09.2023 13:00 27,6 C 27,0 C 22,0 C 56 % 1019,8 hPa 0,0 l/m 0,30 h 0,00 h 271 W/m 15,6 km/h (3 Bft) 97,29 %
05.09.2023 14:00 29,2 C 31,7 C 22,9 C 53 % 1019,5 hPa 0,0 l/m 1,00 h 0,00 h 762 W/m 16,1 km/h (3 Bft) 97,40 %
05.09.2023 15:00 30,1 C 29,3 C 23,5 C 52 % 1019,0 hPa 0,0 l/m 1,00 h 0,00 h 691 W/m 13,1 km/h (3 Bft) 97,88 %
05.09.2023 16:00 30,4 C 29,9 C 24,0 C 52 % 1018,6 hPa 0,0 l/m 1,00 h 0,00 h 567 W/m 11,2 km/h (2 Bft) 96,07 %
05.09.2023 17:00 30,7 C 32,9 C 25,2 C 52 % 1018,3 hPa 0,0 l/m 1,00 h 0,00 h 417 W/m 9,4 km/h (2 Bft) 97,85 %
05.09.2023 18:00 30,7 C 32,9 C 25,2 C 53 % 1018,3 hPa 0,0 l/m 0,83 h 0,00 h 199 W/m 6,3 km/h (2 Bft) 98,78 %
05.09.2023 19:00 28,3 C 26,5 C 22,1 C 58 % 1018,5 hPa 0,0 l/m 0,00 h 0,00 h 19 W/m 3,8 km/h (1 Bft) 97,36 %
05.09.2023 20:00 25,6 C 24,0 C 20,0 C 64 % 1018,8 hPa 0,0 l/m 0,00 h 0,00 h 5 W/m 2,6 km/h (1 Bft) 97,22 %
05.09.2023 21:00 23,8 C 22,5 C 18,6 C 69 % 1018,9 hPa 0,0 l/m 0,00 h 0,00 h 0 W/m 0,0 km/h (0 Bft) 97,38 %
05.09.2023 22:00 23,4 C 22,7 C 18,9 C 70 % 1019,0 hPa 0,0 l/m 0,00 h 0,00 h 0 W/m 4,6 km/h (1 Bft) 97,86 %
05.09.2023 23:00 23,0 C 21,8 C 18,1 C 71 % 1019,2 hPa 0,0 l/m 0,00 h 0,00 h 0 W/m 4,0 km/h (1 Bft) 97,24 %
06.09.2023 00:00 22,0 C 20,5 C 17,0 C 74 % 1019,3 hPa 0,0 l/m 0,00 h 0,00 h 0 W/m 3,8 km/h (1 Bft) 96,75 %
06.09.2023 01:00 20,9 C 19,6 C 16,2 C 77 % 1019,6 hPa 0,0 l/m 0,00 h 0,00 h 0 W/m 3,4 km/h (1 Bft) 98,74 %
06.09.2023 02:00 19,9 C 17,9 C 14,3 C 81 % 1019,8 hPa 0,0 l/m 0,00 h 0,00 h 0 W/m 0,2 km/h (0 Bft) 97,28 %
06.09.2023 03:00 18,7 C 17,7 C 14,1 C 84 % 1019,8 hPa 0,0 l/m 0,00 h 0,00 h 0 W/m 2,6 km/h (1 Bft) 97,55 %
06.09.2023 04:00 18,0 C 16,5 C 13,1 C 86 % 1019,8 hPa 0,0 l/m 0,00 h 0,00 h 0 W/m 1,2 km/h (1 Bft) 96,16 %
06.09.2023 05:00 17,6 C 16,7 C 13,3 C 87 % 1019,7 hPa 0,0 l/m 0,00 h 0,00 h 0 W/m 1,3 km/h (1 Bft) 98,85 %
06.09.2023 06:00 17,5 C 16,4 C 13,1 C 87 % 1020,0 hPa 0,0 l/m 0,00 h 0,00 h 0 W/m 1,2 km/h (1 Bft) 96,22 %
06.09.2023 07:00 16,7 C 15,1 C 11,8 C 90 % 1020,5 hPa 0,0 l/m 0,00 h 0,00 h 12 W/m 0,0 km/h (0 Bft) 97,02 %
06.09.2023 08:00 16,6 C 16,9 C 13,1 C 92 % 1020,6 hPa 0,0 l/m 0,00 h 0,00 h 22 W/m 2,3 km/h (1 Bft) 98,93 %
06.09.2023 09:00 19,3 C 20,1 C 15,8 C 86 % 1020,9 hPa 0,0 l/m 0,17 h 0,00 h 92 W/m 5,0 km/h (1 Bft) 95,65 %
06.09.2023 10:00 22,5 C 23,2 C 18,0 C 73 % 1021,0 hPa 0,0 l/m 0,17 h 0,00 h 101 W/m 8,4 km/h (2 Bft) 98,94 %
06.09.2023 11:00 25,1 C 27,4 C 20,6 C 65 % 1021,0 hPa 0,0 l/m 0,53 h 0,00 h 336 W/m 10,7 km/h (2 Bft) 97,83 %
06.09.2023 12:00 27,6 C 30,2 C 22,9 C 56 % 1020,7 hPa 0,0 l/m 0,57 h 0,00 h 405 W/m 9,7 km/h (2 Bft) 96,03 %
06.09.2023 13:00 28,5 C 27,7 C 22,8 C 50 % 1020,6 hPa 0,0 l/m 0,27 h 0,00 h 253 W/m 12,5 km/h (3 Bft) 98,36 %
06.09.2023 14:00 30,1 C 33,7 C 23,5 C 48 % 1020,1 hPa 0,0 l/m 1,00 h 0,00 h 757 W/m 10,4 km/h (2 Bft) 98,86 %
06.09.2023 15:00 31,0 C 30,3 C 24,1 C 46 % 1019,7 hPa 0,0 l/m 1,00 h 0,00 h 687 W/m 9,1 km/h (2 Bft) 94,94 %
06.09.2023 16:00 31,3 C 30,7 C 24,5 C 49 % 1019,4 hPa 0,0 l/m 1,00 h 0,00 h 566 W/m 7,9 km/h (2 Bft) 98,57 %
06.09.2023 17:00 31,6 C 33,7 C 25,8 C 48 % 1019,1 hPa 0,0 l/m 1,00 h 0,00 h 411 W/m 7,2 km/h (2 Bft) 99,09 %
06.09.2023 18:00 31,8 C 33,5 C 25,4 C 49 % 1019,1 hPa 0,0 l/m 0,83 h 0,00 h 195 W/m 4,1 km/h (1 Bft) 96,27 %
06.09.2023 19:00 29,3 C 26,2 C 21,3 C 61 % 1018,9 hPa 0,0 l/m 0,00 h 0,00 h 21 W/m 0,6 km/h (0 Bft) 96,79 %
06.09.2023 20:00 25,8 C 22,8 C 18,3 C 70 % 1019,2 hPa 0,0 l/m 0,00 h 0,00 h 5 W/m 0,0 km/h (0 Bft) 99,64 %
06.09.2023 21:00 23,4 C 21,0 C 16,9 C 77 % 1019,6 hPa 0,0 l/m 0,00 h 0,00 h 0 W/m 0,0 km/h (0 Bft) 95,80 %
06.09.2023 22:00 21,6 C 19,6 C 15,9 C 83 % 1019,9 hPa 0,0 l/m 0,00 h 0,00 h 0 W/m 0,0 km/h (0 Bft) 98,05 %
06.09.2023 23:00 20,3 C 18,5 C 14,9 C 87 % 1020,1 hPa 0,0 l/m 0,00 h 0,00 h 0 W/m 0,0 km/h (0 Bft) 98,09 %
07.09.2023 00:00 19,1 C 17,4 C 14,2 C 90 % 1020,3 hPa 0,0 l/m 0,00 h 0,00 h 0 W/m 0,0 km/h (0 Bft) 96,41 %
07.09.2023 01:00 18,3 C 16,7 C 13,5 C 91 % 1020,2 hPa 0,0 l/m 0,00 h 0,00 h 0 W/m 0,0 km/h (0 Bft) 97,42 %
07.09.2023 02:00 17,5 C 15,9 C 13,0 C 93 % 1020,0 hPa 0,0 l/m 0,00 h 0,00 h 0 W/m 0,0 km/h (0 Bft) 94,48 %
07.09.2023 03:00 16,9 C 15,6 C 12,6 C 94 % 1019,8 hPa 0,0 l/m 0,00 h 0,00 h 0 W/m 0,0 km/h (0 Bft) 97,03 %
07.09.2023 04:00 16,3 C 15,1 C 12,2 C 95 % 1019,6 hPa 0,0 l/m 0,00 h 0,00 h 0 W/m 0,0 km/h (0 Bft) 95,01 %
07.09.2023 05:00 15,8 C 14,6 C 11,8 C 95 % 1019,5 hPa 0,0 l/m 0,00 h 0,00 h 0 W/m 0,0 km/h (0 Bft) 98,42 %
07.09.2023 06:00 15,3 C 14,0 C 11,1 C 95 % 1019,6 hPa 0,0 l/m 0,00 h 0,00 h 0 W/m 0,0 km/h (0 Bft) 97,26 %
07.09.2023 07:00 14,9 C 13,9 C 11,1 C 96 % 1019,9 hPa 0,0 l/m 0,00 h 0,00 h 12 W/m 0,0 km/h (0 Bft) 94,32 %
07.09.2023 08:00 15,1 C 15,1 C 11,9 C 96 % 1020,2 hPa 0,0 l/m 0,00 h 0,03 h 24 W/m 0,5 km/h (0 Bft) 97,25 %
07.09.2023 09:00 16,9 C 18,2 C 14,2 C 98 % 1020,5 hPa 0,0 l/m 0,10 h 0,00 h 81 W/m 2,8 km/h (1 Bft) 97,69 %
07.09.2023 10:00 19,9 C 22,2 C 17,1 C 90 % 1020,4 hPa 0,0 l/m 0,10 h 0,00 h 95 W/m 6,3 km/h (2 Bft) 97,73 %
07.09.2023 11:00 24,4 C 26,6 C 20,1 C 69 % 1020,2 hPa 0,0 l/m 0,87 h 0,00 h 469 W/m 10,2 km/h (2 Bft) 95,97 %
07.09.2023 12:00 27,0 C 29,5 C 22,5 C 62 % 1019,7 hPa 0,0 l/m 0,47 h 0,00 h 374 W/m 9,5 km/h (2 Bft) 99,67 %
07.09.2023 13:00 27,9 C 27,2 C 22,3 C 61 % 1019,2 hPa 0,0 l/m 0,23 h 0,00 h 249 W/m 8,7 km/h (2 Bft) 95,94 %
07.09.2023 14:00 29,8 C 33,6 C 23,1 C 56 % 1018,8 hPa 0,0 l/m 1,00 h 0,00 h 753 W/m 10,6 km/h (2 Bft) 97,75 %
07.09.2023 15:00 31,2 C 30,8 C 24,4 C 54 % 1018,1 hPa 0,0 l/m 1,00 h 0,00 h 678 W/m 9,3 km/h (2 Bft) 97,90 %
07.09.2023 16:00 31,5 C 31,2 C 25,0 C 49 % 1017,8 hPa 0,0 l/m 1,00 h 0,00 h 560 W/m 9,3 km/h (2 Bft) 96,94 %
07.09.2023 17:00 31,9 C 33,5 C 26,0 C 46 % 1017,6 hPa 0,0 l/m 1,00 h 0,00 h 404 W/m 8,7 km/h (2 Bft) 96,31 %
07.09.2023 18:00 31,7 C 33,1 C 26,0 C 47 % 1017,4 hPa 0,0 l/m 0,87 h 0,00 h 192 W/m 6,2 km/h (2 Bft) 97,91 %
07.09.2023 19:00 29,3 C 26,5 C 21,9 C 56 % 1017,5 hPa 0,0 l/m 0,00 h 0,03 h 20 W/m 1,9 km/h (1 Bft) 96,98 %
07.09.2023 20:00 25,2 C 22,6 C 18,3 C 69 % 1017,7 hPa 0,0 l/m 0,00 h 0,00 h 5 W/m 0,3 km/h (0 Bft) 98,87 %
07.09.2023 21:00 22,9 C 21,0 C 17,2 C 75 % 1017,9 hPa 0,0 l/m 0,00 h 0,00 h 0 W/m 0,3 km/h (0 Bft) 96,50 %
07.09.2023 22:00 21,4 C 19,6 C 16,0 C 80 % 1018,0 hPa 0,0 l/m 0,00 h 0,00 h 0 W/m 0,0 km/h (0 Bft) 97,81 %
07.09.2023 23:00 20,8 C 20,0 C 15,9 C 80 % 1018,2 hPa 0,0 l/m 0,00 h 0,00 h 0 W/m 1,0 km/h (0 Bft) 96,86 %
08.09.2023 00:00 20,6 C 19,1 C 15,3 C 81 % 1018,2 hPa 0,0 l/m 0,00 h 0,00 h 0 W/m 0,7 km/h (0 Bft) 98,11 %
08.09.2023 01:00 19,8 C 18,4 C 14,6 C 83 % 1018,0 hPa 0,0 l/m 0,00 h 0,00 h 0 W/m 0,5 km/h (0 Bft) 96,33 %
08.09.2023 02:00 19,2 C 18,0 C 14,4 C 84 % 1017,9 hPa 0,0 l/m 0,00 h 0,00 h 0 W/m 0,0 km/h (0 Bft) 96,86 %
08.09.2023 03:00 18,7 C 17,8 C 14,4 C 85 % 1017,7 hPa 0,0 l/m 0,00 h 0,00 h 0 W/m 0,0 km/h (0 Bft) 99,35 %
08.09.2023 04:00 18,4 C 17,3 C 14,0 C 86 % 1017,6 hPa 0,0 l/m 0,00 h 0,00 h 0 W/m 0,0 km/h (0 Bft) 95,80 %
08.09.2023 05:00 18,0 C 17,1 C 13,9 C 86 % 1017,4 hPa 0,0 l/m 0,00 h 0,00 h 0 W/m 0,0 km/h (0 Bft) 97,88 %
08.09.2023 06:00 17,7 C 16,7 C 13,4 C 87 % 1017,4 hPa 0,0 l/m 0,00 h 0,00 h 0 W/m 0,0 km/h (0 Bft) 98,08 %
08.09.2023 07:00 17,5 C 16,8 C 13,6 C 87 % 1017,6 hPa 0,0 l/m 0,00 h 0,00 h 13 W/m 0,0 km/h (0 Bft) 96,45 %
08.09.2023 08:00 18,3 C 18,0 C 14,4 C 84 % 1017,7 hPa 0,0 l/m 0,00 h 0,00 h 27 W/m 0,0 km/h (0 Bft) 97,33 %
08.09.2023 09:00 20,2 C 20,1 C 16,0 C 80 % 1017,9 hPa 0,0 l/m 0,03 h 0,00 h 61 W/m 4,4 km/h (1 Bft) 99,22 %
08.09.2023 10:00 22,4 C 22,7 C 17,8 C 74 % 1017,8 hPa 0,0 l/m 0,07 h 0,00 h 107 W/m 9,3 km/h (2 Bft) 95,17 %
08.09.2023 11:00 24,6 C 26,8 C 20,3 C 69 % 1017,8 hPa 0,0 l/m 0,53 h 0,00 h 376 W/m 8,4 km/h (2 Bft) 99,43 %
08.09.2023 12:00 27,2 C 29,6 C 22,9 C 62 % 1017,7 hPa 0,0 l/m 0,47 h 0,00 h 355 W/m 8,2 km/h (2 Bft) 97,74 %
08.09.2023 13:00 27,8 C 27,4 C 22,2 C 61 % 1017,6 hPa 0,0 l/m 0,23 h 0,00 h 249 W/m 6,4 km/h (2 Bft) 96,13 %
08.09.2023 14:00 30,0 C 33,9 C 23,0 C 57 % 1017,3 hPa 0,0 l/m 1,00 h 0,00 h 739 W/m 7,2 km/h (2 Bft) 98,61 %
08.09.2023 15:00 31,2 C 30,3 C 23,8 C 53 % 1017,0 hPa 0,0 l/m 1,00 h 0,00 h 662 W/m 6,7 km/h (2 Bft) 98,00 %
08.09.2023 16:00 31,5 C 31,0 C 24,4 C 53 % 1016,7 hPa 0,0 l/m 1,00 h 0,00 h 541 W/m 4,7 km/h (1 Bft) 95,32 %
08.09.2023 17:00 31,6 C 33,4 C 24,9 C 55 % 1016,4 hPa 0,0 l/m 1,00 h 0,00 h 383 W/m 4,9 km/h (1 Bft) 96,37 %
08.09.2023 18:00 31,8 C 32,4 C 24,0 C 58 % 1016,3 hPa 0,0 l/m 0,87 h 0,00 h 173 W/m 3,5 km/h (1 Bft) 96,37 %
08.09.2023 19:00 29,3 C 26,1 C 20,2 C 69 % 1016,3 hPa 0,0 l/m 0,00 h 0,00 h 21 W/m 0,0 km/h (0 Bft) 96,51 %
08.09.2023 20:00 26,0 C 23,4 C 18,3 C 77 % 1016,5 hPa 0,0 l/m 0,00 h 0,00 h 0 W/m 0,2 km/h (0 Bft) 96,88 %
08.09.2023 21:00 24,1 C 21,8 C 17,3 C 83 % 1016,7 hPa 0,0 l/m 0,00 h 0,00 h 0 W/m 0,0 km/h (0 Bft) 97,84 %
08.09.2023 22:00 22,7 C 20,7 C 16,7 C 87 % 1016,8 hPa 0,0 l/m 0,00 h 0,00 h 0 W/m 0,0 km/h (0 Bft) 97,51 %
08.09.2023 23:00 21,6 C 19,7 C 16,0 C 89 % 1016,7 hPa 0,0 l/m 0,00 h 0,00 h 0 W/m 0,0 km/h (0 Bft) 97,16 %
09.09.2023 00:00 20,6 C 18,9 C 15,4 C 92 % 1016,7 hPa 0,0 l/m 0,00 h 0,00 h 0 W/m 0,0 km/h (0 Bft) 98,12 %
09.09.2023 01:00 20,0 C 19,1 C 15,3 C 93 % 1016,5 hPa 0,0 l/m 0,00 h 0,00 h 0 W/m 0,7 km/h (0 Bft) 97,59 %
09.09.2023 02:00 19,6 C 18,7 C 15,2 C 93 % 1016,3 hPa 0,0 l/m 0,00 h 0,00 h 0 W/m 1,8 km/h (1 Bft) 97,12 %
09.09.2023 03:00 19,3 C 18,4 C 14,8 C 92 % 1016,1 hPa 0,0 l/m 0,00 h 0,00 h 0 W/m 1,4 km/h (1 Bft) 97,16 %
09.09.2023 04:00 19,1 C 18,3 C 14,9 C 90 % 1016,2 hPa 0,0 l/m 0,00 h 0,00 h 0 W/m 2,9 km/h (1 Bft) 98,63 %
09.09.2023 05:00 18,8 C 17,8 C 14,4 C 90 % 1016,3 hPa 0,0 l/m 0,00 h 0,00 h 0 W/m 1,5 km/h (1 Bft) 95,45 %
09.09.2023 06:00 18,4 C 17,3 C 14,3 C 90 % 1016,3 hPa 0,0 l/m 0,00 h 0,00 h 0 W/m 2,9 km/h (1 Bft) 98,12 %
09.09.2023 07:00 18,1 C 17,2 C 14,0 C 91 % 1016,6 hPa 0,0 l/m 0,00 h 0,00 h 16 W/m 3,3 km/h (1 Bft) 98,70 %
09.09.2023 08:00 18,4 C 18,2 C 14,7 C 92 % 1017,0 hPa 0,0 l/m 0,00 h 0,00 h 40 W/m 7,3 km/h (2 Bft) 94,19 %
09.09.2023 09:00 19,9 C 20,2 C 16,3 C 91 % 1017,3 hPa 0,0 l/m 0,00 h 0,00 h 73 W/m 5,8 km/h (2 Bft) 99,72 %
09.09.2023 10:00 22,3 C 23,0 C 18,4 C 86 % 1017,4 hPa 0,0 l/m 0,07 h 0,00 h 136 W/m 6,1 km/h (2 Bft) 96,58 %
09.09.2023 11:00 24,7 C 26,6 C 21,0 C 81 % 1017,5 hPa 0,0 l/m 0,57 h 0,00 h 352 W/m 7,0 km/h (2 Bft) 97,17 %
09.09.2023 12:00 27,2 C 29,6 C 23,4 C 75 % 1017,3 hPa 0,0 l/m 0,50 h 0,00 h 359 W/m 7,3 km/h (2 Bft) 98,31 %
09.09.2023 13:00 28,0 C 27,6 C 22,7 C 71 % 1017,1 hPa 0,0 l/m 0,23 h 0,00 h 268 W/m 7,8 km/h (2 Bft) 97,65 %
09.09.2023 14:00 29,8 C 32,7 C 23,3 C 60 % 1017,0 hPa 0,0 l/m 1,00 h 0,00 h 705 W/m 8,8 km/h (2 Bft) 96,76 %
09.09.2023 15:00 30,7 C 29,7 C 23,8 C 53 % 1016,9 hPa 0,0 l/m 1,00 h 0,00 h 641 W/m 8,4 km/h (2 Bft) 98,79 %
09.09.2023 16:00 30,6 C 29,6 C 24,0 C 51 % 1016,8 hPa 0,0 l/m 1,00 h 0,00 h 519 W/m 8,8 km/h (2 Bft) 97,49 %
09.09.2023 17:00 30,3 C 31,6 C 24,4 C 55 % 1016,7 hPa 0,0 l/m 1,00 h 0,00 h 356 W/m 6,5 km/h (2 Bft) 96,20 %
09.09.2023 18:00 30,5 C 30,9 C 23,6 C 59 % 1016,7 hPa 0,0 l/m 0,87 h 0,00 h 157 W/m 4,4 km/h (1 Bft) 98,45 %
09.09.2023 19:00 28,5 C 25,7 C 20,8 C 67 % 1016,8 hPa 0,0 l/m 0,00 h 0,00 h 24 W/m 0,3 km/h (0 Bft) 98,29 %
09.09.2023 20:00 25,7 C 23,6 C 18,6 C 75 % 1017,1 hPa 0,0 l/m 0,00 h 0,00 h 5 W/m 0,0 km/h (0 Bft) 95,67 %
09.09.2023 21:00 23,7 C 21,8 C 17,4 C 82 % 1017,5 hPa 0,0 l/m 0,00 h 0,00 h 0 W/m 0,0 km/h (0 Bft) 99,86 %
09.09.2023 22:00 22,2 C 20,6 C 16,5 C 85 % 1017,8 hPa 0,0 l/m 0,00 h 0,00 h 0 W/m 0,0 km/h (0 Bft) 96,28 %
09.09.2023 23:00 21,1 C 19,5 C 15,8 C 89 % 1017,7 hPa 0,0 l/m 0,00 h 0,00 h 0 W/m 0,0 km/h (0 Bft) 97,46 %
10.09.2023 00:00 20,2 C 18,7 C 15,3 C 91 % 1017,6 hPa 0,0 l/m 0,00 h 0,00 h 0 W/m 0,0 km/h (0 Bft) 98,19 %
10.09.2023 01:00 19,6 C 18,2 C 14,9 C 93 % 1017,7 hPa 0,0 l/m 0,00 h 0,00 h 0 W/m 0,0 km/h (0 Bft) 96,94 %
10.09.2023 02:00 19,0 C 17,6 C 14,4 C 94 % 1017,6 hPa 0,0 l/m 0,00 h 0,00 h 0 W/m 0,0 km/h (0 Bft) 97,04 %
10.09.2023 03:00 18,6 C 17,2 C 14,1 C 95 % 1017,6 hPa 0,0 l/m 0,00 h 0,00 h 0 W/m 0,0 km/h (0 Bft) 96,37 %
10.09.2023 04:00 18,2 C 16,8 C 13,9 C 96 % 1017,7 hPa 0,0 l/m 0,00 h 0,00 h 0 W/m 0,0 km/h (0 Bft) 98,96 %
10.09.2023 05:00 17,9 C 16,7 C 13,8 C 96 % 1017,8 hPa 0,0 l/m 0,00 h 0,00 h 0 W/m 0,0 km/h (0 Bft) 95,98 %
10.09.2023 06:00 17,6 C 16,7 C 13,3 C 96 % 1017,7 hPa 0,0 l/m 0,00 h 0,00 h 0 W/m 0,0 km/h (0 Bft) 98,53 %
10.09.2023 07:00 17,5 C 16,8 C 13,4 C 97 % 1017,9 hPa 0,0 l/m 0,00 h 0,00 h 16 W/m 0,0 km/h (0 Bft) 98,36 %
10.09.2023 08:00 18,1 C 18,3 C 14,8 C 98 % 1018,3 hPa 0,0 l/m 0,00 h 0,00 h 41 W/m 2,1 km/h (1 Bft) 95,87 %
10.09.2023 09:00 19,7 C 20,6 C 16,6 C 97 % 1018,5 hPa 0,0 l/m 0,00 h 0,00 h 70 W/m 5,3 km/h (1 Bft) 98,64 %
10.09.2023 10:00 22,2 C 23,5 C 18,6 C 89 % 1018,6 hPa 0,0 l/m 0,13 h 0,00 h 150 W/m 6,7 km/h (2 Bft) 98,22 %
10.09.2023 11:00 25,5 C 27,9 C 21,4 C 75 % 1018,4 hPa 0,0 l/m 0,57 h 0,00 h 366 W/m 8,0 km/h (2 Bft) 95,60 %
10.09.2023 12:00 28,6 C 31,0 C 23,7 C 66 % 1018,0 hPa 0,0 l/m 0,50 h 0,00 h 323 W/m 5,4 km/h (1 Bft) 98,78 %
10.09.2023 13:00 29,6 C 29,2 C 23,4 C 63 % 1017,6 hPa 0,0 l/m 0,20 h 0,00 h 237 W/m 8,6 km/h (2 Bft) 97,59 %
10.09.2023 14:00 31,2 C 33,7 C 24,0 C 59 % 1017,3 hPa 0,0 l/m 1,00 h 0,00 h 661 W/m 6,4 km/h (2 Bft) 96,00 %
10.09.2023 15:00 31,8 C 31,1 C 24,6 C 58 % 1016,9 hPa 0,0 l/m 1,00 h 0,00 h 593 W/m 5,4 km/h (1 Bft) 98,86 %
10.09.2023 16:00 31,8 C 30,8 C 24,5 C 58 % 1016,6 hPa 0,0 l/m 1,00 h 0,00 h 470 W/m 5,0 km/h (1 Bft) 98,64 %
10.09.2023 17:00 32,0 C 32,4 C 24,2 C 58 % 1016,3 hPa 0,0 l/m 1,00 h 0,00 h 303 W/m 4,5 km/h (1 Bft) 97,01 %
10.09.2023 18:00 31,3 C 30,4 C 23,8 C 63 % 1015,9 hPa 0,0 l/m 0,57 h 0,00 h 128 W/m 2,5 km/h (1 Bft) 96,79 %
10.09.2023 19:00 29,3 C 26,4 C 21,4 C 72 % 1015,8 hPa 0,0 l/m 0,20 h 0,00 h 34 W/m 0,1 km/h (0 Bft) 99,29 %
10.09.2023 20:00 26,9 C 23,9 C 19,6 C 78 % 1016,0 hPa 0,0 l/m 0,00 h 0,00 h 5 W/m 0,0 km/h (0 Bft) 94,82 %
10.09.2023 21:00 25,0 C 22,5 C 18,5 C 83 % 1016,1 hPa 0,0 l/m 0,00 h 0,00 h 0 W/m 0,0 km/h (0 Bft) 98,29 %
10.09.2023 22:00 23,7 C 21,5 C 17,8 C 86 % 1016,0 hPa 0,0 l/m 0,00 h 0,00 h 0 W/m 0,0 km/h (0 Bft) 98,22 %
10.09.2023 23:00 22,7 C 20,8 C 17,2 C 89 % 1015,8 hPa 0,0 l/m 0,00 h 0,00 h 0 W/m 0,0 km/h (0 Bft) 96,16 %
Min-Datum _ 04.09.23 04.09.23 04.09.23 06.09.23 10.09.23 - - - - 04.09.23 07.09.23
_ Min-Zeit 06:20 05:28 05:30 15:22 23:54 - - - - 00:00 03:18
Minimum _ 12,6 C 11,7 C 8,9 C 45 % 1015,6 hPa - - - - 0,0 km/h (0 Bft) 32,14 %
Max-Datum _ 10.09.23 07.09.23 07.09.23 04.09.23 04.09.23 04.09.23 04.09.23 07.09.23 06.09.23 05.09.23 04.09.23
_ Max-Zeit 17:24 14:22 17:32 08:48 00:02 08:50 12:08 08:48 13:58 10:04 00:20
Maximum _ 32,2 C 37,2 C 26,7 C 99 % 1028,0 hPa 0,2 l/m 0,07 h 0,03 h 785 W/m 35,4 km/h
SO (5 Bft)
100,00 %
Durchschnitt _ 23,0 C 22,6 C 17,8 C 75 % 1019,4 hPa #0,2 l/m #45:18 h #4 min. 272 W/m 4,3 km/h (1 Bft) 97,36 %
© 2023 W. Hausmann